Time;durP1;ratioP1;P1;durP2;ratioP2;P2;SDS_P1;SDS_P2;PMS_P1;PMS_P2;Temp;Humidity;BMP_temperature;BMP_pressure;BME280_temperature;BME280_humidity;BME280_pressure;Samples;Min_cycle;Max_cycle;Signal;HPM_P1;HPM_P2
2021/07/02 00:00:56;;;;;;;7.00;6.27;;;13.40;99.90;;;;;;4982512;28;21018;-91
2021/07/02 00:03:24;;;;;;;12.07;6.30;;;13.40;99.90;;;;;;4982210;28;20736;-91
2021/07/02 00:05:52;;;;;;;6.67;6.07;;;13.40;99.90;;;;;;4986453;28;20700;-91
2021/07/02 00:08:25;;;;;;;10.70;6.33;;;13.40;99.90;;;;;;4984297;28;21237;-90
2021/07/02 00:10:52;;;;;;;7.20;5.93;;;13.40;99.90;;;;;;4993636;28;20676;-90
2021/07/02 00:13:19;;;;;;;6.70;6.00;;;13.40;99.90;;;;;;4989263;28;20622;-91
2021/07/02 00:15:46;;;;;;;6.60;5.90;;;13.40;99.90;;;;;;4986321;28;20640;-91
2021/07/02 00:18:13;;;;;;;9.23;6.33;;;13.30;99.90;;;;;;4979115;28;20644;-91
2021/07/02 00:20:40;;;;;;;7.80;6.63;;;13.40;99.90;;;;;;4964134;28;20784;-92
2021/07/02 00:23:07;;;;;;;6.83;6.23;;;13.40;99.90;;;;;;4985753;28;20716;-90
2021/07/02 00:25:37;;;;;;;6.97;6.10;;;13.30;99.90;;;;;;4992667;28;21179;-91
2021/07/02 00:28:05;;;;;;;6.77;6.17;;;13.30;99.90;;;;;;4980281;28;20878;-92
2021/07/02 00:30:32;;;;;;;6.43;5.90;;;13.30;99.90;;;;;;4981939;28;20683;-93
2021/07/02 00:32:58;;;;;;;6.60;6.00;;;13.30;99.90;;;;;;4980162;28;20625;-91
2021/07/02 00:35:27;;;;;;;7.00;6.40;;;13.30;99.90;;;;;;4985731;28;20709;-91
2021/07/02 00:37:54;;;;;;;7.03;6.33;;;13.40;99.90;;;;;;4982147;28;20982;-91
2021/07/02 00:40:22;;;;;;;9.00;5.77;;;13.20;99.90;;;;;;4981919;28;20681;-92
2021/07/02 00:42:50;;;;;;;6.73;6.13;;;13.30;99.90;;;;;;4981719;28;20645;-91
2021/07/02 00:45:19;;;;;;;10.33;6.30;;;13.20;99.90;;;;;;4979635;28;20989;-93
2021/07/02 00:47:46;;;;;;;9.70;6.77;;;13.20;99.90;;;;;;4982630;28;20638;-92
2021/07/02 00:50:13;;;;;;;5.70;5.30;;;13.20;99.90;;;;;;4983907;28;20685;-93
2021/07/02 00:52:42;;;;;;;8.93;6.47;;;13.20;99.90;;;;;;4983427;28;20647;-93
2021/07/02 00:55:11;;;;;;;7.93;6.40;;;13.20;99.90;;;;;;4988419;28;20637;-91
2021/07/02 00:57:41;;;;;;;8.67;6.43;;;13.20;99.90;;;;;;4982701;28;21070;-92
2021/07/02 01:00:11;;;;;;;6.43;5.60;;;13.20;99.90;;;;;;4987832;28;20699;-93
2021/07/02 01:02:38;;;;;;;7.67;6.80;;;13.20;99.90;;;;;;4972564;28;21042;-93
2021/07/02 01:05:09;;;;;;;7.67;6.93;;;13.20;99.90;;;;;;4980913;28;20629;-93
2021/07/02 01:07:36;;;;;;;10.93;5.90;;;13.20;99.90;;;;;;4988011;28;20652;-92
2021/07/02 01:10:05;;;;;;;7.23;6.63;;;13.00;99.90;;;;;;4995582;28;20733;-94
2021/07/02 01:12:31;;;;;;;9.10;6.93;;;13.00;99.90;;;;;;5008887;28;20649;-91
2021/07/02 01:14:58;;;;;;;7.77;7.07;;;13.00;99.90;;;;;;5002060;28;20744;-92
2021/07/02 01:17:26;;;;;;;8.47;5.87;;;13.00;99.90;;;;;;5003244;28;20720;-91
2021/07/02 01:19:54;;;;;;;8.30;6.67;;;13.10;99.90;;;;;;5009247;28;20716;-91
2021/07/02 01:22:25;;;;;;;10.10;6.60;;;13.10;99.90;;;;;;5008349;28;20685;-93
2021/07/02 01:24:53;;;;;;;8.00;6.87;;;13.10;99.90;;;;;;5003407;28;20667;-93
2021/07/02 01:27:21;;;;;;;9.73;6.93;;;13.10;99.90;;;;;;4999964;28;21072;-92
2021/07/02 01:29:48;;;;;;;9.97;7.07;;;13.10;99.90;;;;;;4999196;28;20667;-92
2021/07/02 01:32:15;;;;;;;9.93;7.30;;;13.10;99.90;;;;;;5006560;28;20772;-91
2021/07/02 01:34:43;;;;;;;6.73;6.03;;;13.10;99.90;;;;;;5008228;28;20647;-92
2021/07/02 01:37:10;;;;;;;7.60;6.83;;;13.10;99.90;;;;;;5007388;28;20635;-92
2021/07/02 01:39:38;;;;;;;9.33;7.40;;;13.10;99.90;;;;;;5007322;28;20649;-92
2021/07/02 01:42:07;;;;;;;12.03;7.10;;;13.20;99.90;;;;;;4995719;28;20979;-93
2021/07/02 01:44:34;;;;;;;10.67;6.10;;;13.20;99.90;;;;;;4987745;28;20722;-92
2021/07/02 01:47:00;;;;;;;7.30;6.60;;;13.20;99.90;;;;;;4993305;28;20624;-95
2021/07/02 01:49:29;;;;;;;6.90;6.03;;;13.20;99.90;;;;;;5002321;28;20681;-93
2021/07/02 01:51:55;;;;;;;8.10;7.40;;;13.10;99.90;;;;;;5003390;28;20656;-94
2021/07/02 01:54:22;;;;;;;6.47;5.93;;;13.10;99.90;;;;;;5000226;28;20617;-92
2021/07/02 01:56:51;;;;;;;7.23;6.50;;;13.10;99.90;;;;;;4985692;28;20644;-92
2021/07/02 01:59:19;;;;;;;8.37;5.93;;;13.20;99.90;;;;;;4978695;28;20614;-93
2021/07/02 02:01:48;;;;;;;11.20;6.53;;;13.20;99.90;;;;;;4982325;28;20631;-93
2021/07/02 02:04:15;;;;;;;8.07;7.27;;;13.10;99.90;;;;;;4981450;28;20740;-93
2021/07/02 02:06:43;;;;;;;9.13;7.43;;;13.20;99.90;;;;;;4983953;28;20629;-93
2021/07/02 02:09:10;;;;;;;10.90;7.57;;;13.20;99.90;;;;;;4979539;28;20704;-93
2021/07/02 02:11:37;;;;;;;12.37;7.63;;;13.20;99.90;;;;;;4983994;28;20667;-93
2021/07/02 02:14:10;;;;;;;7.87;7.17;;;13.20;99.90;;;;;;4986510;28;20652;-94
2021/07/02 02:16:37;;;;;;;7.60;6.90;;;13.20;99.90;;;;;;4979630;28;20657;-92
2021/07/02 02:19:05;;;;;;;8.20;7.40;;;13.20;99.90;;;;;;4978643;28;20633;-94
2021/07/02 02:21:32;;;;;;;8.63;7.93;;;13.10;99.90;;;;;;4983953;28;20683;-93
2021/07/02 02:23:58;;;;;;;8.80;7.43;;;13.10;99.90;;;;;;4979783;28;20637;-92
2021/07/02 02:26:25;;;;;;;10.97;8.23;;;13.00;99.90;;;;;;4963980;28;20641;-91
2021/07/02 02:28:52;;;;;;;7.63;6.93;;;13.10;99.90;;;;;;4981081;28;20672;-93
2021/07/02 02:31:21;;;;;;;9.30;6.83;;;13.10;99.90;;;;;;4982164;28;20686;-93
2021/07/02 02:33:47;;;;;;;8.83;7.20;;;13.10;99.90;;;;;;4984427;28;20629;-91
2021/07/02 02:36:14;;;;;;;9.80;7.57;;;13.00;99.90;;;;;;4984979;28;20636;-91
2021/07/02 02:38:41;;;;;;;8.47;7.50;;;12.90;99.90;;;;;;4977851;28;20610;-89
2021/07/02 02:41:08;;;;;;;8.87;8.07;;;12.90;99.90;;;;;;4982782;28;21063;-90
2021/07/02 02:43:35;;;;;;;8.70;8.00;;;12.80;99.90;;;;;;4977529;28;20941;-91
2021/07/02 02:46:02;;;;;;;8.70;7.77;;;12.80;99.90;;;;;;4985972;28;20960;-91
2021/07/02 02:48:30;;;;;;;11.90;8.70;;;12.70;99.90;;;;;;4981008;28;20633;-92
2021/07/02 02:50:56;;;;;;;8.80;7.90;;;12.70;99.90;;;;;;4982073;28;21399;-91
2021/07/02 02:53:23;;;;;;;8.97;8.13;;;12.60;99.90;;;;;;4980999;28;21198;-91
2021/07/02 02:55:50;;;;;;;8.93;7.77;;;12.50;99.90;;;;;;4970384;28;20637;-91
2021/07/02 02:58:17;;;;;;;11.07;8.50;;;12.50;99.90;;;;;;4975675;28;20610;-91
2021/07/02 03:00:45;;;;;;;9.93;8.90;;;12.50;99.90;;;;;;4983729;28;20673;-90
2021/07/02 03:03:12;;;;;;;10.10;7.80;;;12.40;99.90;;;;;;4978707;28;20629;-91
2021/07/02 03:05:40;;;;;;;12.70;8.30;;;12.30;99.90;;;;;;4980524;28;21310;-91
2021/07/02 03:08:07;;;;;;;11.83;8.67;;;12.30;99.90;;;;;;4978795;28;20628;-91
2021/07/02 03:10:35;;;;;;;9.37;8.57;;;12.20;99.90;;;;;;4981669;28;20991;-90
2021/07/02 03:13:01;;;;;;;9.57;8.67;;;12.20;99.90;;;;;;4978995;28;20668;-92
2021/07/02 03:15:28;;;;;;;12.10;8.23;;;12.10;99.90;;;;;;4979279;28;20645;-93
2021/07/02 03:17:56;;;;;;;8.80;7.90;;;12.10;99.90;;;;;;4985428;28;20643;-93
2021/07/02 03:20:23;;;;;;;8.33;7.53;;;12.10;99.90;;;;;;4984413;28;20656;-91
2021/07/02 03:22:56;;;;;;;10.97;8.13;;;12.00;99.90;;;;;;4977648;28;21039;-92
2021/07/02 03:25:50;;;;;;;9.53;8.33;;;12.00;99.90;;;;;;4997400;28;20637;-91
2021/07/02 03:28:17;;;;;;;13.07;8.17;;;12.00;99.90;;;;;;4994363;28;20614;-91
2021/07/02 03:30:44;;;;;;;9.33;8.43;;;11.90;99.90;;;;;;4994759;28;20665;-92
2021/07/02 03:33:11;;;;;;;8.53;7.63;;;11.90;99.90;;;;;;4979762;28;20613;-92
2021/07/02 03:35:38;;;;;;;9.20;8.40;;;11.90;99.90;;;;;;4983535;28;20640;-92
2021/07/02 03:38:06;;;;;;;8.80;8.00;;;11.90;99.90;;;;;;4984208;28;20630;-92
2021/07/02 03:40:34;;;;;;;10.80;8.60;;;11.80;99.90;;;;;;4981367;28;20760;-94
2021/07/02 03:43:01;;;;;;;10.03;8.53;;;11.90;99.90;;;;;;4984991;28;20639;-94
2021/07/02 03:45:30;;;;;;;11.47;8.70;;;11.90;99.90;;;;;;4979967;28;20633;-92
2021/07/02 03:47:56;;;;;;;9.47;8.53;;;11.90;99.90;;;;;;4983560;28;21182;-91
2021/07/02 03:50:23;;;;;;;10.20;9.20;;;11.80;99.90;;;;;;4981404;28;20679;-92
2021/07/02 03:52:50;;;;;;;10.57;8.33;;;11.80;99.90;;;;;;4985156;28;20672;-92
2021/07/02 03:55:27;;;;;;;9.27;8.27;;;11.80;99.90;;;;;;4981472;28;20674;-93
2021/07/02 03:57:54;;;;;;;8.67;7.87;;;11.80;99.90;;;;;;4987835;28;20639;-94
2021/07/02 04:00:22;;;;;;;9.90;8.87;;;11.80;99.90;;;;;;4980712;28;20708;-93
2021/07/02 04:02:51;;;;;;;10.53;8.73;;;11.90;99.90;;;;;;4986237;28;20633;-93
2021/07/02 04:05:27;;;;;;;11.43;8.63;;;11.90;99.90;;;;;;4992702;28;20658;-93
2021/07/02 04:08:00;;;;;;;10.63;8.70;;;11.90;99.90;;;;;;4992062;28;20647;-94
2021/07/02 04:10:32;;;;;;;10.23;8.97;;;11.90;99.90;;;;;;4996780;28;20652;-94
2021/07/02 04:13:01;;;;;;;10.87;9.80;;;11.90;99.90;;;;;;4988088;28;20662;-93
2021/07/02 04:15:28;;;;;;;10.00;8.90;;;12.00;99.90;;;;;;4980349;28;21251;-92
2021/07/02 04:17:55;;;;;;;10.97;8.40;;;12.00;99.90;;;;;;4983306;28;20675;-92
2021/07/02 04:20:22;;;;;;;9.70;8.90;;;12.00;99.90;;;;;;4976601;28;20730;-94
2021/07/02 04:22:49;;;;;;;9.53;8.40;;;12.10;99.90;;;;;;4982567;28;20716;-93
2021/07/02 04:25:22;;;;;;;12.50;8.00;;;12.20;99.90;;;;;;4987128;28;20660;-95
2021/07/02 04:27:52;;;;;;;11.40;8.87;;;12.20;99.90;;;;;;4990479;28;21215;-93
2021/07/02 04:30:19;;;;;;;9.90;9.00;;;12.40;99.90;;;;;;4991367;28;20633;-93
2021/07/02 04:32:48;;;;;;;8.30;7.50;;;12.40;99.90;;;;;;4993134;28;20671;-95
2021/07/02 04:35:15;;;;;;;10.37;8.50;;;12.50;99.90;;;;;;4993467;28;20714;-92
2021/07/02 04:37:44;;;;;;;10.00;9.00;;;12.60;99.90;;;;;;4990141;28;20727;-91
2021/07/02 04:40:15;;;;;;;9.70;8.70;;;12.80;99.90;;;;;;4992879;28;20985;-93
2021/07/02 04:42:47;;;;;;;8.30;7.50;;;12.90;99.90;;;;;;4985940;28;20629;-91
2021/07/02 04:45:16;;;;;;;8.87;7.97;;;13.00;99.90;;;;;;4986790;28;20743;-92
2021/07/02 04:47:43;;;;;;;8.90;7.53;;;13.10;99.90;;;;;;4987590;28;20635;-90
2021/07/02 04:50:11;;;;;;;9.40;8.03;;;13.10;99.90;;;;;;4989141;28;20644;-92
2021/07/02 04:52:40;;;;;;;8.70;7.80;;;13.20;99.90;;;;;;4983861;28;21030;-95
2021/07/02 04:55:08;;;;;;;9.10;8.33;;;13.30;99.90;;;;;;4989088;28;20652;-92
2021/07/02 04:57:40;;;;;;;8.50;7.60;;;13.30;99.90;;;;;;4988195;28;20635;-91
2021/07/02 05:00:11;;;;;;;8.10;7.20;;;13.40;99.90;;;;;;4987917;28;20637;-91
2021/07/02 05:02:39;;;;;;;9.27;8.37;;;13.40;99.90;;;;;;4981984;28;20660;-92
2021/07/02 05:05:07;;;;;;;9.30;8.40;;;13.50;99.90;;;;;;4985255;28;21249;-91
2021/07/02 05:07:35;;;;;;;10.17;8.67;;;13.60;99.90;;;;;;4987042;28;20644;-92
2021/07/02 05:10:02;;;;;;;8.87;8.07;;;13.60;99.90;;;;;;4987928;28;20639;-92
2021/07/02 05:12:30;;;;;;;10.13;8.07;;;13.70;99.90;;;;;;4985691;28;20645;-92
2021/07/02 05:14:57;;;;;;;7.80;7.10;;;13.80;99.90;;;;;;4984714;28;20632;-92
2021/07/02 05:17:24;;;;;;;8.60;7.40;;;13.90;99.90;;;;;;4984368;28;20629;-92
2021/07/02 05:19:53;;;;;;;9.50;8.53;;;14.00;99.90;;;;;;4989215;28;20639;-92
2021/07/02 05:22:20;;;;;;;8.80;8.00;;;14.00;99.90;;;;;;4983605;28;20633;-92
2021/07/02 05:24:47;;;;;;;8.67;7.77;;;14.10;99.90;;;;;;4986419;28;20661;-92
2021/07/02 05:27:14;;;;;;;11.13;6.97;;;14.20;99.90;;;;;;4984328;28;20711;-92
2021/07/02 05:29:42;;;;;;;6.80;6.20;;;14.30;99.90;;;;;;4984725;28;20640;-92
2021/07/02 05:32:10;;;;;;;9.47;7.93;;;14.30;99.90;;;;;;4977458;28;20660;-92
2021/07/02 05:34:37;;;;;;;8.60;7.80;;;14.30;99.90;;;;;;4984007;28;20672;-91
2021/07/02 05:37:05;;;;;;;8.57;7.40;;;14.30;99.90;;;;;;4980646;28;20634;-92
2021/07/02 05:39:32;;;;;;;6.43;5.73;;;14.30;99.90;;;;;;4989306;28;20684;-92
2021/07/02 05:41:59;;;;;;;7.20;6.20;;;14.30;99.90;;;;;;4996348;28;20610;-91
2021/07/02 05:44:26;;;;;;;6.60;6.00;;;14.30;99.90;;;;;;5011521;28;20609;-91
2021/07/02 05:46:53;;;;;;;7.13;6.43;;;14.40;99.90;;;;;;5003257;28;20650;-91
2021/07/02 05:49:20;;;;;;;8.27;7.57;;;14.40;99.90;;;;;;4982570;28;20691;-91
2021/07/02 05:51:47;;;;;;;8.60;7.47;;;14.50;99.90;;;;;;4987653;28;20640;-92
2021/07/02 05:54:16;;;;;;;6.67;5.97;;;14.60;99.90;;;;;;4987095;28;20625;-93
2021/07/02 05:56:43;;;;;;;8.03;7.13;;;14.70;99.90;;;;;;4986937;28;20640;-91
2021/07/02 05:59:10;;;;;;;8.20;7.27;;;14.90;99.90;;;;;;4978443;28;20624;-91
2021/07/02 06:01:37;;;;;;;9.77;7.57;;;15.00;99.90;;;;;;4986246;28;20639;-91
2021/07/02 06:04:04;;;;;;;7.20;6.50;;;15.00;99.90;;;;;;4979710;28;20668;-91
2021/07/02 06:06:31;;;;;;;8.30;7.53;;;14.80;99.90;;;;;;4985477;28;21215;-90
2021/07/02 06:09:00;;;;;;;9.00;6.63;;;14.70;99.90;;;;;;4983892;28;20616;-91
2021/07/02 06:11:28;;;;;;;10.10;7.10;;;14.90;99.90;;;;;;4981413;28;21152;-91
2021/07/02 06:13:55;;;;;;;7.47;6.77;;;15.20;99.90;;;;;;4986060;28;21228;-91
2021/07/02 06:16:22;;;;;;;9.97;7.83;;;15.40;99.90;;;;;;4982287;28;20699;-91
2021/07/02 06:18:49;;;;;;;7.03;6.30;;;15.40;99.90;;;;;;4982914;28;20636;-90
2021/07/02 06:21:16;;;;;;;13.10;7.80;;;15.50;99.90;;;;;;4982036;28;21182;-91
2021/07/02 06:23:43;;;;;;;8.57;7.27;;;15.60;99.90;;;;;;4985671;28;20634;-91
2021/07/02 06:26:10;;;;;;;7.27;6.67;;;15.80;99.90;;;;;;4982455;28;20752;-91
2021/07/02 06:28:38;;;;;;;8.33;7.60;;;15.90;99.90;;;;;;4985098;28;20645;-91
2021/07/02 06:31:05;;;;;;;7.83;7.13;;;16.10;99.90;;;;;;4980996;28;20736;-91
2021/07/02 06:33:32;;;;;;;8.27;6.97;;;16.30;99.90;;;;;;4990579;28;20668;-92
2021/07/02 06:35:59;;;;;;;8.93;8.03;;;16.40;99.90;;;;;;4985894;28;20660;-91
2021/07/02 06:38:26;;;;;;;9.10;8.20;;;16.30;99.90;;;;;;4987867;28;20739;-91
2021/07/02 06:40:54;;;;;;;8.20;7.00;;;16.30;99.90;;;;;;4988191;28;20652;-90
2021/07/02 06:43:21;;;;;;;7.57;6.80;;;16.40;99.90;;;;;;4986335;28;20717;-92
2021/07/02 06:45:49;;;;;;;7.07;6.47;;;16.60;99.90;;;;;;4981887;28;20732;-91
2021/07/02 06:48:16;;;;;;;8.47;7.67;;;16.60;99.90;;;;;;4982760;28;21161;-91
2021/07/02 06:50:45;;;;;;;7.33;6.63;;;16.60;99.90;;;;;;4982684;28;20644;-91
2021/07/02 06:53:13;;;;;;;10.50;7.37;;;16.50;99.90;;;;;;4982527;28;21469;-91
2021/07/02 06:55:41;;;;;;;11.53;6.80;;;16.60;99.90;;;;;;4984242;28;20656;-91
2021/07/02 06:58:09;;;;;;;6.90;5.63;;;16.90;99.90;;;;;;4981120;28;20641;-91
2021/07/02 07:00:39;;;;;;;7.50;5.93;;;17.00;99.90;;;;;;4985593;28;20703;-91
2021/07/02 07:03:07;;;;;;;7.70;6.90;;;17.40;99.90;;;;;;4986048;28;20756;-91
2021/07/02 07:05:34;;;;;;;7.53;6.83;;;17.50;99.90;;;;;;4982375;28;20661;-91
2021/07/02 07:08:02;;;;;;;6.90;6.20;;;17.60;99.90;;;;;;4984966;28;20671;-91
2021/07/02 07:10:30;;;;;;;8.80;6.27;;;17.80;99.90;;;;;;4987688;28;20629;-91
2021/07/02 07:12:58;;;;;;;6.43;4.63;;;18.20;99.90;;;;;;4983180;28;20668;-91
2021/07/02 07:15:26;;;;;;;6.50;5.73;;;18.30;99.90;;;;;;4985744;28;20661;-91
2021/07/02 07:17:52;;;;;;;6.90;6.30;;;18.30;99.90;;;;;;4981789;28;20630;-90
2021/07/02 07:20:21;;;;;;;6.60;6.10;;;18.60;99.90;;;;;;4974498;28;20626;-90
2021/07/02 07:22:48;;;;;;;6.53;5.70;;;19.00;99.90;;;;;;4982021;28;20663;-91
2021/07/02 07:25:16;;;;;;;6.93;5.90;;;19.10;99.90;;;;;;4978028;28;20641;-91
2021/07/02 07:27:44;;;;;;;6.50;6.00;;;19.00;99.90;;;;;;4986188;28;21291;-90
2021/07/02 07:30:13;;;;;;;15.13;5.80;;;19.40;99.90;;;;;;4981866;28;20647;-92
2021/07/02 07:32:40;;;;;;;5.43;5.03;;;19.40;99.90;;;;;;4981973;28;20724;-90
2021/07/02 07:35:16;;;;;;;5.27;4.80;;;19.20;99.90;;;;;;4983768;28;20760;-91
2021/07/02 07:37:47;;;;;;;5.67;5.17;;;19.10;99.90;;;;;;4980824;28;20637;-91
2021/07/02 07:40:14;;;;;;;6.00;5.50;;;19.00;99.90;;;;;;4985636;28;20958;-91
2021/07/02 07:42:41;;;;;;;5.20;4.70;;;19.00;99.90;;;;;;4983414;28;21227;-91
2021/07/02 07:45:09;;;;;;;5.57;5.07;;;19.00;99.90;;;;;;4986986;28;20660;-90
2021/07/02 07:47:35;;;;;;;7.10;5.80;;;18.80;99.90;;;;;;4985034;28;21199;-91
2021/07/02 07:50:08;;;;;;;4.87;4.47;;;18.70;99.90;;;;;;4986826;28;20613;-91
2021/07/02 07:55:50;;;;;;;5.13;4.73;;;18.70;99.90;;;;;;4985415;28;20667;-90
2021/07/02 07:58:16;;;;;;;6.10;5.60;;;19.10;99.90;;;;;;4992192;28;20632;-91
2021/07/02 08:00:43;;;;;;;5.50;5.10;;;19.80;99.90;;;;;;5009307;28;20713;-90
2021/07/02 08:03:17;;;;;;;4.53;4.13;;;20.10;99.90;;;;;;5000237;28;20712;-91
2021/07/02 08:05:44;;;;;;;4.80;4.27;;;19.70;99.90;;;;;;4983904;28;20645;-91
2021/07/02 08:08:12;;;;;;;4.83;4.43;;;19.50;99.90;;;;;;4982630;28;20687;-90
2021/07/02 08:10:39;;;;;;;15.70;8.57;;;19.20;99.90;;;;;;4975556;28;20648;-91
2021/07/02 08:13:08;;;;;;;4.20;3.80;;;19.10;99.90;;;;;;4992744;28;20665;-91
2021/07/02 08:15:36;;;;;;;4.90;4.40;;;18.90;99.90;;;;;;4993083;28;20674;-92
2021/07/02 08:18:04;;;;;;;4.40;4.00;;;19.00;99.90;;;;;;4995913;28;20701;-91
2021/07/02 08:20:31;;;;;;;5.53;5.03;;;19.10;99.90;;;;;;4991045;28;20657;-91
2021/07/02 08:22:58;;;;;;;5.87;5.03;;;19.50;99.90;;;;;;4980716;28;20655;-92
2021/07/02 08:25:27;;;;;;;5.27;4.77;;;19.70;99.90;;;;;;4982327;28;20646;-92
2021/07/02 08:30:44;;;;;;;5.17;4.67;;;19.90;99.90;;;;;;4979362;28;20759;-91
2021/07/02 08:33:18;;;;;;;5.27;4.77;;;20.20;99.90;;;;;;4990707;28;20642;-92
2021/07/02 08:35:46;;;;;;;5.80;5.30;;;20.30;99.90;;;;;;4988013;28;20695;-92
2021/07/02 08:38:14;;;;;;;5.90;5.30;;;20.30;99.90;;;;;;4982293;28;20624;-92
2021/07/02 08:40:46;;;;;;;6.93;4.90;;;20.40;99.90;;;;;;4980858;28;20629;-92
2021/07/02 08:43:14;;;;;;;4.50;4.20;;;20.60;99.90;;;;;;4982566;28;20688;-93
2021/07/02 08:45:47;;;;;;;5.53;5.03;;;20.60;99.90;;;;;;4990607;28;20668;-91
2021/07/02 08:48:20;;;;;;;4.70;4.30;;;20.70;99.90;;;;;;4986096;28;20633;-91
2021/07/02 08:50:53;;;;;;;4.50;4.20;;;20.70;99.90;;;;;;4983064;28;20632;-92
2021/07/02 08:53:20;;;;;;;5.57;4.00;;;20.60;99.90;;;;;;4984172;28;20668;-91
2021/07/02 08:55:48;;;;;;;5.43;4.57;;;20.80;99.90;;;;;;4987538;28;20790;-92
2021/07/02 08:58:22;;;;;;;5.07;4.63;;;21.00;99.90;;;;;;4987160;28;21231;-93
2021/07/02 09:00:52;;;;;;;4.33;4.03;;;21.20;99.90;;;;;;4983796;28;21226;-93
2021/07/02 09:03:26;;;;;;;5.97;4.33;;;21.20;99.90;;;;;;4978578;28;20629;-91
2021/07/02 09:05:57;;;;;;;5.13;4.50;;;21.50;99.90;;;;;;4986931;28;20664;-91
2021/07/02 09:08:25;;;;;;;6.73;4.97;;;21.60;99.90;;;;;;4975113;28;20671;-91
2021/07/02 09:10:52;;;;;;;4.57;4.20;;;21.50;99.90;;;;;;4983451;28;20640;-90
2021/07/02 09:13:19;;;;;;;5.00;4.50;;;21.20;99.90;;;;;;4985123;28;20676;-91
2021/07/02 09:15:48;;;;;;;6.43;4.77;;;21.10;99.90;;;;;;4997093;28;20668;-91
2021/07/02 09:52:09;;;;;;;5.10;4.40;;;20.70;99.90;;;;;;5010707;28;20608;-92
2021/07/02 09:54:36;;;;;;;4.87;4.33;;;21.00;99.90;;;;;;5009714;28;20739;-91
2021/07/02 09:57:19;;;;;;;4.63;4.13;;;21.00;99.90;;;;;;5017261;28;21085;-91
2021/07/02 10:00:05;;;;;;;4.53;4.23;;;21.00;99.90;;;;;;4984246;28;20994;-92
2021/07/02 10:02:32;;;;;;;6.10;4.70;;;21.40;98.20;;;;;;4980969;28;20632;-93
2021/07/02 10:05:03;;;;;;;3.23;3.00;;;22.00;96.70;;;;;;4981041;28;20652;-92
2021/07/02 10:07:38;;;;;;;4.50;4.10;;;22.50;91.20;;;;;;4989144;28;20727;-92
2021/07/02 10:10:06;;;;;;;4.40;3.53;;;22.30;92.50;;;;;;4992154;28;20625;-91
2021/07/02 10:12:33;;;;;;;5.13;4.67;;;21.90;94.50;;;;;;4983019;28;20633;-91
2021/07/02 10:15:00;;;;;;;8.43;4.13;;;21.40;95.50;;;;;;4987294;28;20682;-91
2021/07/02 10:17:28;;;;;;;4.60;4.20;;;21.60;97.50;;;;;;4979643;28;20644;-91
2021/07/02 10:19:59;;;;;;;6.10;5.50;;;21.70;97.90;;;;;;4994268;28;21238;-91
2021/07/02 10:22:26;;;;;;;6.43;5.57;;;22.00;99.30;;;;;;4997960;28;20640;-90
2021/07/02 10:24:56;;;;;;;4.77;4.37;;;22.30;99.90;;;;;;4989546;28;20688;-91
2021/07/02 10:27:23;;;;;;;5.70;5.20;;;22.20;99.90;;;;;;4979526;28;20632;-92
2021/07/02 10:29:50;;;;;;;5.13;4.73;;;21.90;99.40;;;;;;4992474;28;20639;-90
2021/07/02 10:32:20;;;;;;;5.67;5.20;;;22.30;99.20;;;;;;4986506;28;20620;-91
2021/07/02 10:34:48;;;;;;;6.13;5.37;;;22.50;98.50;;;;;;4984258;28;20679;-91
2021/07/02 10:37:16;;;;;;;6.63;4.80;;;23.00;96.20;;;;;;4979886;28;20627;-92
2021/07/02 10:39:46;;;;;;;6.07;5.27;;;22.60;97.40;;;;;;4985473;28;20626;-92
2021/07/02 10:42:15;;;;;;;5.40;4.90;;;23.30;97.40;;;;;;4980956;28;20687;-92
2021/07/02 10:45:08;;;;;;;5.63;5.17;;;23.80;95.60;;;;;;4986279;28;20740;-91
2021/07/02 10:47:49;;;;;;;6.47;5.20;;;23.40;94.70;;;;;;4994718;28;20655;-92
2021/07/02 10:50:36;;;;;;;7.40;5.80;;;22.70;95.60;;;;;;4997467;28;20624;-91
2021/07/02 10:53:26;;;;;;;5.90;5.40;;;22.70;98.20;;;;;;4987224;28;20593;-92
2021/07/02 10:55:53;;;;;;;5.27;4.80;;;23.10;97.80;;;;;;4984427;28;20664;-93
2021/07/02 10:58:22;;;;;;;5.20;4.70;;;23.50;94.20;;;;;;4984300;28;20629;-92
2021/07/02 11:01:09;;;;;;;4.40;4.00;;;23.00;91.50;;;;;;4965539;28;20647;-91
2021/07/02 11:03:40;;;;;;;8.90;4.43;;;23.10;90.30;;;;;;4992348;28;20636;-91
2021/07/02 11:06:42;;;;;;;5.33;4.40;;;23.40;91.20;;;;;;4986834;28;21252;-92
2021/07/02 11:09:09;;;;;;;5.33;4.93;;;23.60;91.40;;;;;;4993181;28;20616;-91
2021/07/02 11:12:09;;;;;;;5.90;5.40;;;24.30;91.90;;;;;;4983900;28;21366;-89
2021/07/02 11:15:08;;;;;;;6.20;5.07;;;24.20;91.00;;;;;;4989373;28;20771;-92
2021/07/02 11:17:38;;;;;;;4.50;4.20;;;24.20;91.10;;;;;;4980206;28;20983;-92
2021/07/02 11:20:33;;;;;;;7.20;4.80;;;24.30;88.50;;;;;;5000187;28;20616;-94
2021/07/02 11:23:24;;;;;;;5.30;4.80;;;24.50;91.30;;;;;;5006660;28;20640;-92
2021/07/02 11:26:01;;;;;;;5.83;5.27;;;24.00;86.20;;;;;;4981097;28;20748;-91
2021/07/02 11:28:40;;;;;;;5.17;4.77;;;23.90;87.40;;;;;;4990062;28;20617;-92
2021/07/02 11:31:18;;;;;;;5.80;5.40;;;24.10;87.30;;;;;;4986877;28;21581;-91
2021/07/02 11:33:47;;;;;;;5.30;4.90;;;23.50;90.30;;;;;;4977595;28;20732;-91
2021/07/02 11:36:17;;;;;;;6.23;5.63;;;23.40;86.80;;;;;;4985904;28;20656;-91
2021/07/02 11:38:56;;;;;;;4.80;4.40;;;23.30;90.40;;;;;;4983291;28;20669;-92
2021/07/02 11:41:28;;;;;;;6.17;4.07;;;23.60;90.60;;;;;;4980052;28;20633;-92
2021/07/02 11:43:56;;;;;;;5.07;4.67;;;23.60;91.90;;;;;;4983524;28;20616;-92
2021/07/02 11:46:24;;;;;;;5.13;4.73;;;24.30;88.00;;;;;;4986013;28;20780;-92
2021/07/02 11:48:56;;;;;;;6.10;5.53;;;24.10;86.20;;;;;;4990772;28;21079;-92
2021/07/02 11:51:26;;;;;;;5.63;5.20;;;24.80;88.00;;;;;;4984651;28;20617;-90
2021/07/02 11:53:56;;;;;;;5.10;4.70;;;25.40;85.50;;;;;;4986771;28;20664;-91
2021/07/02 11:56:25;;;;;;;5.07;4.73;;;26.20;83.20;;;;;;4984554;28;20691;-92
2021/07/02 11:58:54;;;;;;;4.60;4.30;;;26.20;81.40;;;;;;4985926;28;20716;-93
2021/07/02 12:01:23;;;;;;;4.93;4.53;;;26.10;78.60;;;;;;4989608;28;20633;-91
2021/07/02 12:03:52;;;;;;;5.87;5.47;;;25.50;80.90;;;;;;4988420;28;20642;-92
2021/07/02 12:06:26;;;;;;;5.27;4.87;;;25.80;84.10;;;;;;4985430;28;20657;-91
2021/07/02 12:08:57;;;;;;;5.10;4.73;;;26.20;83.30;;;;;;4982162;28;20679;-90
2021/07/02 12:11:36;;;;;;;6.17;5.50;;;26.20;76.80;;;;;;4979274;28;21332;-91
2021/07/02 12:14:08;;;;;;;5.97;5.43;;;26.30;75.90;;;;;;4983403;28;20707;-92
2021/07/02 12:16:37;;;;;;;5.40;5.00;;;25.50;78.20;;;;;;4981549;28;20651;-92
2021/07/02 12:19:05;;;;;;;6.17;5.67;;;25.80;80.50;;;;;;4988972;28;20712;-92
2021/07/02 12:21:36;;;;;;;5.83;5.00;;;26.00;80.20;;;;;;4992290;28;21025;-92
2021/07/02 12:24:05;;;;;;;5.20;4.70;;;27.10;78.20;;;;;;4984705;28;20621;-93
2021/07/02 12:26:34;;;;;;;5.67;5.27;;;28.40;74.40;;;;;;4981034;28;20660;-92
2021/07/02 12:29:10;;;;;;;12.87;5.60;;;27.80;71.40;;;;;;4981452;28;20629;-94
2021/07/02 12:31:40;;;;;;;6.47;5.97;;;27.70;73.30;;;;;;4978707;28;20700;-94
2021/07/02 12:34:11;;;;;;;5.57;5.17;;;28.30;73.80;;;;;;4992109;28;20675;-93
2021/07/02 12:37:00;;;;;;;5.60;5.17;;;28.30;74.60;;;;;;4991205;28;20628;-92
2021/07/02 12:39:35;;;;;;;5.90;5.50;;;28.20;74.10;;;;;;4981018;28;20721;-92
2021/07/02 12:42:05;;;;;;;6.67;5.30;;;27.70;69.50;;;;;;4982214;28;20720;-92
2021/07/02 12:44:33;;;;;;;5.47;4.97;;;28.10;73.30;;;;;;4980598;28;20739;-92
2021/07/02 12:47:07;;;;;;;5.60;5.10;;;28.30;71.30;;;;;;4982215;28;20632;-94
2021/07/02 12:49:36;;;;;;;5.73;5.27;;;28.90;70.60;;;;;;4990048;28;20620;-92
2021/07/02 12:54:57;;;;;;;6.00;5.60;;;28.30;69.50;;;;;;4999379;28;20722;-92
2021/07/02 12:57:27;;;;;;;5.37;4.97;;;29.40;67.90;;;;;;4988449;28;20686;-92
2021/07/02 12:59:58;;;;;;;5.53;5.10;;;29.00;67.10;;;;;;4990803;28;20662;-91
2021/07/02 13:02:27;;;;;;;6.00;5.50;;;28.50;67.30;;;;;;4991632;28;20668;-92
2021/07/02 13:04:55;;;;;;;5.60;5.20;;;28.50;66.20;;;;;;4993455;28;20639;-92
2021/07/02 13:07:23;;;;;;;5.40;4.90;;;29.30;66.60;;;;;;4990787;28;20632;-92
2021/07/02 13:10:06;;;;;;;5.23;4.80;;;29.10;65.40;;;;;;4997924;28;20629;-93
2021/07/02 13:12:33;;;;;;;5.33;4.90;;;28.90;66.50;;;;;;4986575;28;20666;-90
2021/07/02 13:15:05;;;;;;;5.10;4.70;;;28.10;67.70;;;;;;5016296;28;20695;-92
2021/07/02 13:17:40;;;;;;;6.20;5.10;;;29.10;66.30;;;;;;5020679;28;20612;-92
2021/07/02 13:20:08;;;;;;;6.20;5.77;;;28.40;63.30;;;;;;4997589;28;20634;-92
2021/07/02 13:22:37;;;;;;;5.63;5.23;;;27.70;66.10;;;;;;4988966;28;21013;-92
2021/07/02 13:25:05;;;;;;;6.10;5.50;;;28.30;67.20;;;;;;5005984;28;20666;-93
2021/07/02 13:27:32;;;;;;;5.90;4.63;;;28.80;65.40;;;;;;4984671;28;20742;-93
2021/07/02 13:30:08;;;;;;;5.60;5.20;;;29.40;62.30;;;;;;4987166;28;20628;-93
2021/07/02 13:32:43;;;;;;;5.87;5.37;;;29.80;65.10;;;;;;4987198;28;20663;-95
2021/07/02 13:35:22;;;;;;;5.43;4.90;;;29.80;61.60;;;;;;4998099;28;20716;-93
2021/07/02 13:37:55;;;;;;;4.83;4.53;;;29.20;64.20;;;;;;4985107;28;20632;-92
2021/07/02 13:40:40;;;;;;;5.67;5.17;;;30.10;64.40;;;;;;4986751;28;21273;-93